Time;durP1;ratioP1;P1;durP2;ratioP2;P2;SDS_P1;SDS_P2;PMS_P1;PMS_P2;Temp;Humidity;BMP_temperature;BMP_pressure;BME280_temperature;BME280_humidity;BME280_pressure;Samples;Min_cycle;Max_cycle;Signal;HPM_P1;HPM_P2
2023/04/07 00:00:22;;;;;;;22.03;19.43;;;;;;;7.31;95.77;100882.41;5115269;28;20200;-72
2023/04/07 00:02:49;;;;;;;23.30;19.50;;;;;;;7.32;95.69;100885.94;5115275;28;20547;-72
2023/04/07 00:05:16;;;;;;;20.30;18.10;;;;;;;7.29;95.67;100881.63;5115417;28;20683;-72
2023/04/07 00:07:42;;;;;;;20.83;18.63;;;;;;;7.32;95.74;100880.59;5115965;28;20184;-72
2023/04/07 00:10:22;;;;;;;20.27;17.77;;;;;;;7.34;95.48;100887.56;5115431;28;20201;-72
2023/04/07 00:12:48;;;;;;;20.40;18.20;;;;;;;7.31;96.13;100877.09;5115285;28;20217;-72
2023/04/07 00:15:15;;;;;;;20.40;18.33;;;;;;;7.35;95.90;100878.63;5114913;28;20205;-72
2023/04/07 00:17:41;;;;;;;25.13;18.67;;;;;;;7.28;95.60;100869.28;5114956;28;20216;-72
2023/04/07 00:20:08;;;;;;;20.53;18.33;;;;;;;7.35;95.53;100867.97;5115198;28;20181;-74
2023/04/07 00:22:34;;;;;;;21.20;18.60;;;;;;;7.35;95.54;100875.97;5114900;28;20250;-74
2023/04/07 00:25:01;;;;;;;19.57;17.23;;;;;;;7.36;95.97;100875.00;5114830;28;20201;-72
2023/04/07 00:27:27;;;;;;;21.60;19.07;;;;;;;7.44;95.69;100877.25;5114658;28;20199;-72
2023/04/07 00:29:54;;;;;;;22.70;18.93;;;;;;;7.44;95.72;100879.91;5114888;28;20237;-73
2023/04/07 00:32:21;;;;;;;21.63;19.50;;;;;;;7.44;95.82;100869.25;5114648;28;20187;-73
2023/04/07 00:34:48;;;;;;;24.10;18.83;;;;;;;7.45;95.55;100866.50;5114607;28;20250;-72
2023/04/07 00:37:14;;;;;;;21.93;19.60;;;;;;;7.45;95.88;100874.50;5096542;28;20197;-72
2023/04/07 00:39:41;;;;;;;25.83;19.77;;;;;;;7.39;96.21;100868.66;5115256;28;20179;-72
2023/04/07 00:42:07;;;;;;;27.23;20.27;;;;;;;7.43;95.53;100870.22;5115082;28;20196;-72
2023/04/07 00:44:34;;;;;;;24.30;19.57;;;;;;;7.43;95.64;100867.53;5114645;28;20301;-72
2023/04/07 00:47:00;;;;;;;22.50;20.07;;;;;;;7.45;95.99;100871.84;5096633;28;20207;-72
2023/04/07 00:49:27;;;;;;;23.27;19.07;;;;;;;7.47;95.39;100871.75;5096137;28;20216;-72
2023/04/07 00:51:54;;;;;;;25.30;19.90;;;;;;;7.46;95.96;100870.03;5114705;28;20653;-72
2023/04/07 00:54:22;;;;;;;28.53;22.40;;;;;;;7.53;95.65;100865.22;5096168;28;20281;-72
2023/04/07 00:56:49;;;;;;;29.53;22.23;;;;;;;7.50;95.77;100860.91;5096232;28;20188;-72
2023/04/07 00:59:16;;;;;;;26.33;20.60;;;;;;;7.52;95.64;100861.69;5096010;28;20669;-72
2023/04/07 01:02:04;;;;;;;25.23;21.00;;;;;;;7.50;96.12;100860.91;5095913;28;20671;-72
2023/04/07 01:04:43;;;;;;;29.40;22.57;;;;;;;7.48;96.09;100860.16;5114175;28;20604;-72
2023/04/07 01:07:47;;;;;;;24.80;21.37;;;;;;;7.55;96.15;100861.50;5095786;28;20586;-72
2023/04/07 01:10:24;;;;;;;30.90;20.73;;;;;;;7.56;96.03;100854.38;5084283;28;20226;-74
2023/04/07 01:13:04;;;;;;;27.03;21.47;;;;;;;7.58;95.60;100856.00;5095357;28;20556;-73
2023/04/07 01:15:33;;;;;;;32.17;22.50;;;;;;;7.58;95.94;100852.47;5095751;28;20281;-72
2023/04/07 01:18:15;;;;;;;28.03;22.00;;;;;;;7.58;95.74;100849.81;5095970;28;20559;-72
2023/04/07 01:20:47;;;;;;;29.10;20.53;;;;;;;7.58;95.62;100849.81;5095729;28;20218;-72
2023/04/07 01:23:26;;;;;;;27.37;22.73;;;;;;;7.63;95.80;100853.06;5114367;28;20182;-72
2023/04/07 01:26:17;;;;;;;31.50;23.70;;;;;;;7.63;95.92;100850.41;5113977;28;20181;-72
2023/04/07 01:29:07;;;;;;;28.60;22.30;;;;;;;7.60;95.54;100851.44;5114525;28;20201;-72
2023/04/07 01:31:36;;;;;;;28.33;22.40;;;;;;;7.64;95.57;100844.16;5095503;28;20259;-72
2023/04/07 01:34:03;;;;;;;27.53;21.60;;;;;;;7.60;95.56;100845.25;5113667;28;20206;-72
2023/04/07 01:36:31;;;;;;;25.93;20.93;;;;;;;7.63;95.51;100845.94;5113692;28;20177;-72
2023/04/07 01:38:58;;;;;;;27.37;21.43;;;;;;;7.67;96.09;100849.28;5095517;28;20182;-72
2023/04/07 01:41:25;;;;;;;23.40;21.00;;;;;;;7.65;95.68;100854.69;5095462;28;20236;-72
2023/04/07 01:43:54;;;;;;;30.47;22.97;;;;;;;7.65;95.83;100856.50;5113808;28;20285;-72
2023/04/07 01:46:22;;;;;;;24.13;20.67;;;;;;;7.69;96.01;100851.88;5095504;28;20189;-74
2023/04/07 01:48:50;;;;;;;30.03;21.27;;;;;;;7.71;95.94;100849.97;5113812;28;20283;-74
2023/04/07 01:51:19;;;;;;;22.13;19.67;;;;;;;7.71;95.34;100850.84;5095403;28;20272;-74
2023/04/07 01:53:47;;;;;;;24.80;21.33;;;;;;;7.73;95.91;100856.06;5113765;28;20294;-73
2023/04/07 01:56:14;;;;;;;23.70;20.17;;;;;;;7.75;95.96;100847.03;5095242;28;20228;-73
2023/04/07 01:58:43;;;;;;;30.27;22.53;;;;;;;7.83;95.77;100841.28;5095658;28;20194;-73
2023/04/07 02:01:14;;;;;;;29.67;22.70;;;;;;;7.77;95.73;100847.81;5096132;28;20173;-73
2023/04/07 02:04:06;;;;;;;35.10;23.43;;;;;;;7.79;95.31;100835.25;5095124;28;20218;-72
2023/04/07 02:06:47;;;;;;;33.37;22.73;;;;;;;7.74;95.34;100844.47;5096068;28;20189;-72
2023/04/07 02:09:19;;;;;;;37.90;23.47;;;;;;;7.69;95.85;100841.22;5095357;28;20227;-72
2023/04/07 02:11:45;;;;;;;34.97;23.83;;;;;;;7.70;96.13;100843.78;5095996;28;20247;-72
2023/04/07 02:14:13;;;;;;;34.30;23.40;;;;;;;7.76;95.90;100845.25;5113580;28;20208;-72
2023/04/07 02:16:54;;;;;;;29.70;23.93;;;;;;;7.72;96.24;100841.88;5095489;28;20181;-72
2023/04/07 02:19:21;;;;;;;33.13;23.77;;;;;;;7.74;96.25;100839.13;5095061;28;20191;-72
2023/04/07 02:21:50;;;;;;;32.30;22.87;;;;;;;7.72;96.21;100833.88;5113798;28;20194;-72
2023/04/07 02:24:20;;;;;;;29.60;22.57;;;;;;;7.74;96.38;100841.81;5096267;28;20212;-72
2023/04/07 02:26:47;;;;;;;32.43;24.63;;;;;;;7.67;96.58;100831.47;5099150;28;20533;-72
2023/04/07 02:29:14;;;;;;;34.77;22.93;;;;;;;7.69;96.46;100839.41;5117250;28;20208;-72
2023/04/07 02:31:42;;;;;;;36.33;23.37;;;;;;;7.71;96.30;100840.19;5117291;28;20702;-72
2023/04/07 02:34:08;;;;;;;34.33;23.80;;;;;;;7.71;96.60;100834.84;5116863;28;20232;-72
2023/04/07 02:36:35;;;;;;;37.13;23.87;;;;;;;7.72;96.18;100841.88;5116947;28;20234;-72
2023/04/07 02:39:02;;;;;;;39.93;23.67;;;;;;;7.73;96.75;100837.41;5098577;28;20216;-72
2023/04/07 02:41:28;;;;;;;43.93;26.23;;;;;;;7.73;96.79;100845.41;5116848;28;20665;-72
2023/04/07 02:43:55;;;;;;;47.17;26.90;;;;;;;7.76;96.85;100839.91;5098407;28;20240;-72
2023/04/07 02:46:21;;;;;;;54.27;28.13;;;;;;;7.77;96.74;100846.94;5117402;28;20632;-72
2023/04/07 02:48:50;;;;;;;64.63;27.97;;;;;;;7.79;97.13;100837.91;5117203;28;20268;-73
2023/04/07 02:51:16;;;;;;;60.60;30.43;;;;;;;7.81;97.09;100837.84;5116641;28;20178;-73
2023/04/07 02:53:43;;;;;;;57.30;28.80;;;;;;;7.87;97.45;100834.78;5098260;28;20213;-73
2023/04/07 02:56:10;;;;;;;56.27;28.77;;;;;;;7.84;97.20;100840.31;5116549;28;20173;-73
2023/04/07 02:58:36;;;;;;;61.53;27.80;;;;;;;7.86;97.11;100841.94;5098208;28;20652;-73
2023/04/07 03:01:03;;;;;;;56.47;28.40;;;;;;;7.86;97.74;100841.94;5098226;28;20287;-73
2023/04/07 03:03:32;;;;;;;63.07;30.10;;;;;;;7.88;97.53;100837.38;5098320;28;20212;-72
2023/04/07 03:06:19;;;;;;;65.80;29.63;;;;;;;7.91;97.39;100840.81;5116087;28;20601;-72
2023/04/07 03:09:05;;;;;;;62.33;28.03;;;;;;;7.88;98.28;100841.84;5115792;28;20582;-74
2023/04/07 03:11:32;;;;;;;58.87;27.57;;;;;;;7.86;97.93;100844.59;5098001;28;20202;-74
2023/04/07 03:13:59;;;;;;;57.37;25.70;;;;;;;7.90;97.95;100847.94;5097791;28;20699;-72
2023/04/07 03:16:27;;;;;;;61.37;27.17;;;;;;;7.90;98.06;100847.94;5098097;28;20758;-72
2023/04/07 03:19:01;;;;;;;58.90;26.53;;;;;;;7.95;98.02;100847.66;5098146;28;20193;-73
2023/04/07 03:21:31;;;;;;;58.30;26.57;;;;;;;7.87;97.80;100846.31;5098380;28;20586;-73
2023/04/07 03:23:57;;;;;;;57.73;26.97;;;;;;;7.89;97.62;100846.22;5097705;28;20216;-72
2023/04/07 03:26:24;;;;;;;65.63;27.10;;;;;;;7.89;98.15;100847.06;5115854;28;20570;-73
2023/04/07 03:28:50;;;;;;;61.23;25.70;;;;;;;7.89;97.83;100844.41;5115837;28;20174;-73
2023/04/07 03:31:18;;;;;;;54.57;25.30;;;;;;;7.86;98.18;100841.09;5097887;28;20196;-73
2023/04/07 03:33:49;;;;;;;58.20;27.40;;;;;;;7.91;97.84;100843.47;5097802;28;20311;-73
2023/04/07 03:36:17;;;;;;;58.17;26.80;;;;;;;7.89;97.79;100851.56;5097206;28;20214;-73
2023/04/07 03:38:46;;;;;;;60.73;26.87;;;;;;;7.89;97.64;100844.41;5097496;28;20190;-73
2023/04/07 03:41:15;;;;;;;63.23;26.60;;;;;;;7.88;97.63;100845.38;5098077;28;20285;-73
2023/04/07 03:43:41;;;;;;;55.80;25.90;;;;;;;7.88;97.85;100856.03;5115572;28;20292;-72
2023/04/07 03:46:09;;;;;;;60.57;27.03;;;;;;;7.87;97.94;100856.97;5097330;28;20197;-72
2023/04/07 03:48:36;;;;;;;60.33;26.33;;;;;;;7.86;97.38;100851.75;5097322;28;20185;-72
2023/04/07 03:51:06;;;;;;;55.53;25.50;;;;;;;7.84;97.70;100851.81;5098059;28;20194;-72
2023/04/07 03:53:33;;;;;;;53.57;24.57;;;;;;;7.87;97.69;100848.13;5097137;28;20266;-72
2023/04/07 03:56:09;;;;;;;50.73;23.97;;;;;;;7.85;97.83;100858.00;5097415;28;20189;-73
2023/04/07 03:58:41;;;;;;;55.47;23.60;;;;;;;7.86;97.71;100865.06;5097635;28;20178;-73
2023/04/07 04:01:12;;;;;;;55.10;23.50;;;;;;;7.86;97.98;100863.25;5097337;28;20182;-73
2023/04/07 04:03:41;;;;;;;57.67;23.77;;;;;;;7.88;97.52;100865.84;5096921;28;20218;-73
2023/04/07 04:06:34;;;;;;;54.53;22.93;;;;;;;7.86;98.13;100865.06;5111357;28;20246;-73
2023/04/07 04:09:13;;;;;;;58.80;22.93;;;;;;;7.90;97.88;100871.94;5096820;28;20254;-73
2023/04/07 04:11:43;;;;;;;48.47;22.43;;;;;;;7.88;97.74;100869.38;5097459;28;20186;-73
2023/04/07 04:14:10;;;;;;;57.43;22.53;;;;;;;7.87;98.15;100872.13;5115279;28;20229;-72
2023/04/07 04:16:36;;;;;;;56.70;23.73;;;;;;;7.86;97.36;100879.25;5115005;28;20204;-73
2023/04/07 04:19:10;;;;;;;54.93;22.50;;;;;;;7.84;97.85;100870.50;5097327;28;20192;-73
2023/04/07 04:21:36;;;;;;;59.67;23.50;;;;;;;7.91;98.26;100876.34;5114904;28;20607;-73
2023/04/07 04:24:03;;;;;;;47.47;23.80;;;;;;;7.91;97.34;100875.47;5096757;28;20214;-73
2023/04/07 04:26:30;;;;;;;37.90;21.33;;;;;;;7.92;98.10;100880.69;5096411;28;20201;-73
2023/04/07 04:29:02;;;;;;;48.37;22.83;;;;;;;7.89;98.09;100872.88;5096757;28;20596;-73
2023/04/07 04:31:29;;;;;;;42.67;21.33;;;;;;;7.90;97.81;100874.59;5096477;28;20214;-73
2023/04/07 04:33:56;;;;;;;44.27;20.60;;;;;;;7.91;97.68;100879.00;5096339;28;20695;-72
2023/04/07 04:36:23;;;;;;;43.40;20.40;;;;;;;7.93;97.45;100886.91;5096362;28;20683;-72
2023/04/07 04:38:54;;;;;;;40.07;19.73;;;;;;;7.89;97.42;100878.22;5096951;28;20177;-72
2023/04/07 04:41:20;;;;;;;40.07;19.83;;;;;;;7.89;97.80;100887.06;5096323;28;20215;-72
2023/04/07 04:43:49;;;;;;;42.33;18.70;;;;;;;7.85;97.59;100892.66;5096223;28;20241;-72
2023/04/07 04:46:20;;;;;;;38.60;19.63;;;;;;;7.88;97.31;100895.19;5095874;28;20202;-72
2023/04/07 04:48:48;;;;;;;38.53;18.73;;;;;;;7.82;97.93;100900.84;5096049;28;20270;-73
2023/04/07 04:51:16;;;;;;;40.10;19.67;;;;;;;7.84;97.42;100898.97;5096082;28;20291;-73
2023/04/07 04:53:46;;;;;;;40.63;19.87;;;;;;;7.83;97.90;100903.44;5096043;28;20209;-73
2023/04/07 04:56:13;;;;;;;42.93;21.03;;;;;;;7.83;97.30;100902.59;5096778;28;20189;-73
2023/04/07 04:58:45;;;;;;;47.67;21.50;;;;;;;7.74;97.24;100901.31;5095933;28;20186;-73
2023/04/07 05:01:20;;;;;;;44.50;21.00;;;;;;;7.80;97.34;100906.25;5095987;28;20562;-73
2023/04/07 05:03:52;;;;;;;42.80;21.90;;;;;;;7.77;97.35;100908.25;5096029;28;20234;-73
2023/04/07 05:06:23;;;;;;;51.30;21.67;;;;;;;7.77;97.41;100906.44;5096489;28;20189;-73
2023/04/07 05:08:51;;;;;;;54.13;24.63;;;;;;;7.77;97.56;100906.44;5095927;28;20267;-73
2023/04/07 05:11:21;;;;;;;53.67;25.10;;;;;;;7.80;97.37;100916.06;5096007;28;20701;-73
2023/04/07 05:13:51;;;;;;;51.47;24.47;;;;;;;7.76;97.66;100915.41;5095709;28;20209;-73
2023/04/07 05:16:17;;;;;;;54.97;22.87;;;;;;;7.77;97.91;100918.94;5095669;28;20287;-73
2023/04/07 05:18:44;;;;;;;49.07;22.53;;;;;;;7.75;97.30;100918.16;5096247;28;20194;-73
2023/04/07 05:21:10;;;;;;;48.37;22.23;;;;;;;7.73;97.38;100928.88;5095701;28;20214;-73
2023/04/07 05:23:37;;;;;;;37.00;18.33;;;;;;;7.67;97.68;100931.91;5113834;28;20209;-73
2023/04/07 05:26:05;;;;;;;35.30;17.80;;;;;;;7.73;97.56;100928.88;5095397;28;20208;-73
2023/04/07 05:28:31;;;;;;;34.57;15.13;;;;;;;7.68;97.35;100933.63;5114170;28;20177;-73
2023/04/07 05:31:03;;;;;;;28.53;16.37;;;;;;;7.66;97.29;100927.53;5095485;28;20201;-73
2023/04/07 05:33:33;;;;;;;29.07;15.13;;;;;;;7.61;96.69;100932.25;5095757;28;20743;-73
2023/04/07 05:36:01;;;;;;;28.03;14.63;;;;;;;7.59;97.51;100932.34;5095520;28;20185;-73
2023/04/07 05:38:29;;;;;;;26.47;14.57;;;;;;;7.57;97.09;100939.56;5095688;28;20193;-73
2023/04/07 05:40:59;;;;;;;27.37;14.17;;;;;;;7.60;97.10;100935.88;5095472;28;20191;-73
2023/04/07 05:43:30;;;;;;;25.53;13.57;;;;;;;7.62;97.36;100936.66;5095697;28;20232;-73
2023/04/07 05:45:57;;;;;;;25.90;13.30;;;;;;;7.63;97.09;100933.88;5095413;28;20182;-74
2023/04/07 05:48:23;;;;;;;21.57;12.57;;;;;;;7.64;97.20;100943.63;5095385;28;20727;-73
2023/04/07 05:50:51;;;;;;;24.77;13.17;;;;;;;7.65;97.23;100941.81;5095357;28;20236;-73
2023/04/07 05:53:18;;;;;;;23.33;12.50;;;;;;;7.63;96.83;100949.03;5095201;28;20222;-72
2023/04/07 05:55:45;;;;;;;18.97;12.50;;;;;;;7.63;97.33;100943.69;5095570;28;20258;-72
2023/04/07 05:58:21;;;;;;;25.43;13.20;;;;;;;7.61;96.76;100948.25;5096857;28;20596;-72
2023/04/07 06:00:50;;;;;;;26.20;13.83;;;;;;;7.62;97.18;100950.84;5099939;28;20215;-73
2023/04/07 06:03:17;;;;;;;21.73;12.43;;;;;;;7.64;96.87;100959.63;5100145;28;20283;-72
2023/04/07 06:05:57;;;;;;;18.80;11.13;;;;;;;7.66;97.33;100959.50;5099614;28;20238;-73
2023/04/07 06:08:24;;;;;;;30.97;12.20;;;;;;;7.64;96.66;100961.44;5099262;28;20193;-73
2023/04/07 06:10:50;;;;;;;22.63;9.80;;;;;;;7.64;97.40;100962.28;5117350;28;20231;-73
2023/04/07 06:13:16;;;;;;;17.10;11.47;;;;;;;7.62;97.08;100973.97;5117587;28;20185;-72
2023/04/07 06:15:43;;;;;;;21.13;11.40;;;;;;;7.62;97.22;100968.63;5117940;28;20182;-72
2023/04/07 06:18:09;;;;;;;21.13;11.43;;;;;;;7.64;97.42;100972.09;5117287;28;20189;-73
2023/04/07 06:20:36;;;;;;;16.40;11.23;;;;;;;7.65;97.11;100976.47;5117313;28;20205;-73
2023/04/07 06:23:02;;;;;;;15.20;11.73;;;;;;;7.63;97.63;100978.34;5117779;28;20546;-74
2023/04/07 06:25:29;;;;;;;18.30;11.27;;;;;;;7.63;97.44;100973.00;5098869;28;20235;-72
2023/04/07 06:27:55;;;;;;;20.33;11.07;;;;;;;7.64;97.70;100982.75;5099003;28;20212;-72
2023/04/07 06:30:22;;;;;;;25.67;11.90;;;;;;;7.64;97.62;100978.28;5117026;28;20697;-73
2023/04/07 06:32:49;;;;;;;17.53;10.87;;;;;;;7.59;97.86;100975.00;5098769;28;20598;-73
2023/04/07 06:35:16;;;;;;;14.57;10.93;;;;;;;7.63;97.88;100983.69;5098669;28;20561;-72
2023/04/07 06:37:43;;;;;;;20.07;10.50;;;;;;;7.67;98.02;100980.75;5098641;28;20735;-72
2023/04/07 06:40:09;;;;;;;18.33;10.87;;;;;;;7.64;97.56;100988.09;5098674;28;20193;-72
2023/04/07 06:42:35;;;;;;;17.60;10.97;;;;;;;7.67;97.64;100983.41;5117078;28;20186;-72
2023/04/07 06:45:13;;;;;;;25.47;11.53;;;;;;;7.69;97.93;100990.50;5098495;28;20236;-72
2023/04/07 06:47:40;;;;;;;13.53;9.53;;;;;;;7.66;97.71;100994.16;5116730;28;20188;-72
2023/04/07 06:50:06;;;;;;;17.33;11.30;;;;;;;7.65;97.51;100993.31;5116883;28;20197;-72
2023/04/07 06:52:33;;;;;;;16.57;9.80;;;;;;;7.67;97.53;100993.22;5116918;28;20220;-72
2023/04/07 06:54:59;;;;;;;13.27;8.93;;;;;;;7.68;97.53;100989.59;5116789;28;20206;-72
2023/04/07 06:57:26;;;;;;;15.60;10.67;;;;;;;7.65;97.81;100998.63;5116632;28;20272;-72
2023/04/07 06:59:52;;;;;;;21.03;9.73;;;;;;;7.68;97.90;101005.59;5116504;28;20177;-72
2023/04/07 07:02:19;;;;;;;13.00;9.47;;;;;;;7.67;97.65;101003.91;5116485;28;20273;-72
2023/04/07 07:04:46;;;;;;;14.20;8.37;;;;;;;7.59;97.59;101007.00;5116874;28;20290;-72
2023/04/07 07:07:12;;;;;;;12.40;8.80;;;;;;;7.58;97.82;101009.72;5116391;28;20181;-73
2023/04/07 07:09:38;;;;;;;22.37;9.83;;;;;;;7.58;98.09;101001.72;5115842;28;20185;-73
2023/04/07 07:12:05;;;;;;;14.13;9.03;;;;;;;7.58;97.73;101005.25;5116519;28;20184;-73
2023/04/07 07:14:31;;;;;;;20.90;8.43;;;;;;;7.55;97.92;101005.44;5116449;28;20261;-73
2023/04/07 07:16:58;;;;;;;13.43;9.33;;;;;;;7.59;97.73;101008.78;5116187;28;20182;-73
2023/04/07 07:19:24;;;;;;;13.57;10.17;;;;;;;7.60;98.16;101010.50;5116189;28;20185;-73
2023/04/07 07:21:50;;;;;;;19.90;8.73;;;;;;;7.55;98.21;101013.41;5116086;28;20177;-73
2023/04/07 07:24:17;;;;;;;17.33;9.13;;;;;;;7.60;98.50;101014.03;5116243;28;20204;-72
2023/04/07 07:26:44;;;;;;;12.97;8.73;;;;;;;7.64;97.99;101017.41;5115884;28;20199;-72
2023/04/07 07:29:11;;;;;;;13.53;8.33;;;;;;;7.67;98.54;101022.56;5115953;28;20189;-72
2023/04/07 07:31:37;;;;;;;11.53;9.17;;;;;;;7.69;98.16;101030.47;5116096;28;20215;-72
2023/04/07 07:34:04;;;;;;;10.23;8.40;;;;;;;7.70;97.92;101027.72;5115814;28;20237;-72
2023/04/07 07:36:31;;;;;;;11.77;7.70;;;;;;;7.70;98.26;101025.03;5115862;28;20266;-72
2023/04/07 07:38:57;;;;;;;20.30;9.27;;;;;;;7.66;97.97;101021.69;5115737;28;20189;-73
2023/04/07 07:41:25;;;;;;;11.77;9.33;;;;;;;7.72;98.38;101025.81;5115727;28;20189;-73
2023/04/07 07:43:51;;;;;;;17.60;9.53;;;;;;;7.73;97.77;101030.19;5115550;28;20209;-72
2023/04/07 07:46:18;;;;;;;13.40;8.73;;;;;;;7.72;97.81;101038.28;5097567;28;20193;-72
2023/04/07 07:48:45;;;;;;;14.57;9.13;;;;;;;7.72;97.88;101038.28;5115500;28;20196;-72
2023/04/07 07:51:12;;;;;;;11.47;8.53;;;;;;;7.79;98.66;101032.53;5115452;28;20210;-72
2023/04/07 07:53:38;;;;;;;11.97;9.30;;;;;;;7.81;97.82;101037.78;5115439;28;20215;-72
2023/04/07 07:56:05;;;;;;;11.97;8.53;;;;;;;7.86;98.07;101039.25;5115757;28;20640;-72
2023/04/07 07:58:31;;;;;;;8.40;7.57;;;;;;;7.86;97.96;101049.91;5115396;28;20181;-72
2023/04/07 08:00:58;;;;;;;8.23;7.13;;;;;;;7.88;98.08;101041.84;5115352;28;20213;-72
2023/04/07 08:03:24;;;;;;;8.10;7.30;;;;;;;7.90;98.42;101053.25;5115208;28;20190;-72
2023/04/07 08:05:51;;;;;;;13.13;7.43;;;;;;;7.93;98.52;101049.59;5097196;28;20217;-72
2023/04/07 08:08:17;;;;;;;8.70;7.90;;;;;;;7.95;97.91;101058.34;5115756;28;20195;-72
2023/04/07 08:10:44;;;;;;;13.23;8.40;;;;;;;7.94;97.71;101062.81;5115298;28;20690;-72
2023/04/07 08:13:10;;;;;;;10.23;7.77;;;;;;;7.96;97.78;101066.28;5115562;28;20187;-72
2023/04/07 08:15:38;;;;;;;18.97;8.80;;;;;;;7.95;97.60;101067.22;5115043;28;20192;-72
2023/04/07 08:18:05;;;;;;;9.53;7.83;;;;;;;8.03;97.58;101070.31;5114948;28;20185;-72
2023/04/07 08:20:33;;;;;;;19.27;9.13;;;;;;;8.03;98.25;101072.97;5114931;28;20184;-72
2023/04/07 08:23:01;;;;;;;16.33;8.20;;;;;;;8.06;97.65;101074.63;5113854;28;20199;-72
2023/04/07 08:25:27;;;;;;;14.00;8.07;;;;;;;8.11;97.83;101075.22;5114756;28;20210;-72
2023/04/07 08:27:54;;;;;;;12.30;7.47;;;;;;;8.12;97.71;101066.28;5114681;28;20619;-72
2023/04/07 08:30:21;;;;;;;8.47;7.77;;;;;;;8.17;98.02;101071.38;5115165;28;20220;-72
2023/04/07 08:32:48;;;;;;;12.57;8.90;;;;;;;8.19;97.78;101070.31;5114674;28;20200;-72
2023/04/07 08:35:14;;;;;;;8.10;7.40;;;;;;;8.18;97.86;101075.75;5114556;28;20572;-72
2023/04/07 08:37:43;;;;;;;9.30;8.43;;;;;;;8.20;97.35;101073.84;5114610;28;20184;-72
2023/04/07 08:40:10;;;;;;;11.90;8.73;;;;;;;8.22;97.14;101082.63;5114546;28;20182;-72
2023/04/07 08:42:41;;;;;;;9.23;6.97;;;;;;;8.23;97.02;101077.19;5114517;28;20283;-72
2023/04/07 08:45:09;;;;;;;18.27;8.20;;;;;;;8.24;97.05;101083.41;5114987;28;20242;-72
2023/04/07 08:47:36;;;;;;;11.37;8.37;;;;;;;8.30;96.99;101083.03;5114405;28;20181;-72
2023/04/07 08:50:08;;;;;;;9.83;8.33;;;;;;;8.27;97.14;101077.88;5114321;28;20187;-72
2023/04/07 08:52:47;;;;;;;8.30;7.53;;;;;;;8.31;96.48;101087.44;5115138;28;20622;-72
2023/04/07 08:55:14;;;;;;;8.93;8.17;;;;;;;8.26;96.77;101094.84;5114212;28;20691;-72
2023/04/07 08:57:41;;;;;;;9.80;8.07;;;;;;;8.30;97.00;101093.72;5114777;28;20270;-72
2023/04/07 09:00:08;;;;;;;11.57;8.30;;;;;;;8.32;97.01;101090.00;5114216;28;20195;-72
2023/04/07 09:02:42;;;;;;;12.87;8.73;;;;;;;8.30;96.76;101101.72;5114174;28;20186;-72
2023/04/07 09:05:09;;;;;;;10.03;8.63;;;;;;;8.35;96.45;101102.31;5114682;28;20220;-72
2023/04/07 09:07:37;;;;;;;14.33;8.23;;;;;;;8.43;96.15;101099.28;5114614;28;20189;-72
2023/04/07 09:10:04;;;;;;;8.07;7.23;;;;;;;8.44;96.53;101103.66;5114119;28;20526;-72
2023/04/07 09:12:32;;;;;;;9.20;8.13;;;;;;;8.45;96.24;101103.56;5114004;28;20220;-72
2023/04/07 09:14:58;;;;;;;11.90;7.63;;;;;;;8.45;96.46;101113.38;5113915;28;20214;-72
2023/04/07 09:17:26;;;;;;;8.70;7.87;;;;;;;8.52;96.33;101112.06;5114259;28;20196;-72
2023/04/07 09:19:56;;;;;;;11.13;8.67;;;;;;;8.51;96.48;101118.38;5114481;28;20189;-72
2023/04/07 09:22:41;;;;;;;12.97;8.43;;;;;;;8.51;96.26;101119.22;5113937;28;20180;-74
2023/04/07 09:25:25;;;;;;;12.13;8.80;;;;;;;8.59;96.76;101117.94;5114101;28;20215;-72
2023/04/07 09:28:00;;;;;;;9.90;8.90;;;;;;;8.59;95.84;101109.91;5114030;28;20241;-72
2023/04/07 09:30:27;;;;;;;8.67;7.83;;;;;;;8.61;96.26;101122.22;5113739;28;20223;-72
2023/04/07 09:32:54;;;;;;;10.20;8.53;;;;;;;8.60;95.47;101117.00;5113653;28;20195;-72
2023/04/07 09:35:22;;;;;;;17.87;8.67;;;;;;;8.50;95.51;101114.00;5113947;28;20205;-72
2023/04/07 09:38:06;;;;;;;14.47;9.70;;;;;;;8.50;95.98;101112.19;5113733;28;20193;-72
2023/04/07 09:40:34;;;;;;;9.50;8.60;;;;;;;8.49;95.75;101115.78;5113705;28;20271;-73
2023/04/07 09:43:02;;;;;;;16.33;9.07;;;;;;;8.55;96.10;101113.69;5113885;28;20556;-73
2023/04/07 09:45:34;;;;;;;8.93;7.60;;;;;;;8.45;95.92;101116.03;5113856;28;20705;-72
2023/04/07 09:48:31;;;;;;;11.10;7.70;;;;;;;8.48;95.96;101114.06;5114149;28;20177;-73
2023/04/07 09:51:05;;;;;;;7.07;6.47;;;;;;;8.53;96.01;101111.16;5110718;28;20307;-73
2023/04/07 09:53:48;;;;;;;6.50;6.23;;;;;;;8.59;95.39;101121.44;5113791;28;20215;-73
2023/04/07 09:56:17;;;;;;;7.60;6.90;;;;;;;8.63;95.77;101122.16;5113867;28;20184;-73
2023/04/07 09:58:46;;;;;;;7.03;6.57;;;;;;;8.62;94.88;101123.09;5113481;28;20279;-73
2023/04/07 10:01:15;;;;;;;9.90;6.53;;;;;;;8.60;95.46;101119.66;5113778;28;20195;-73
2023/04/07 10:03:42;;;;;;;6.47;6.00;;;;;;;8.60;95.46;101120.53;5114085;28;20258;-72
2023/04/07 10:06:09;;;;;;;5.83;5.63;;;;;;;8.63;95.24;101128.34;5113412;28;20279;-72
2023/04/07 10:08:38;;;;;;;6.47;5.93;;;;;;;8.69;95.69;101129.78;5113656;28;20703;-72
2023/04/07 10:11:05;;;;;;;7.13;6.27;;;;;;;8.75;95.30;101132.13;5113725;28;20246;-72
2023/04/07 10:13:34;;;;;;;6.23;5.83;;;;;;;8.80;95.33;101126.53;5113284;28;20641;-72
2023/04/07 10:16:06;;;;;;;6.53;6.07;;;;;;;8.85;96.12;101135.13;5113592;28;20192;-72
2023/04/07 10:18:34;;;;;;;7.47;6.90;;;;;;;8.90;95.48;101133.03;5113648;28;20180;-72
2023/04/07 10:21:02;;;;;;;9.60;7.23;;;;;;;8.96;95.57;101137.19;5113287;28;20200;-72
2023/04/07 10:23:42;;;;;;;8.17;7.17;;;;;;;8.91;95.01;101138.31;5113409;28;20292;-72
2023/04/07 10:26:09;;;;;;;6.47;5.83;;;;;;;8.98;95.11;101136.13;5113408;28;20203;-72
2023/04/07 10:28:40;;;;;;;6.87;6.47;;;;;;;9.03;94.50;101136.72;5113536;28;20172;-72
2023/04/07 10:31:07;;;;;;;7.30;6.63;;;;;;;9.06;94.78;101146.38;5113151;28;20205;-73
2023/04/07 10:33:52;;;;;;;6.93;6.47;;;;;;;8.93;94.97;101152.44;5113091;28;20759;-72
2023/04/07 10:36:20;;;;;;;6.00;5.67;;;;;;;9.00;94.93;101150.25;5113214;28;20268;-72
2023/04/07 10:39:05;;;;;;;6.07;5.70;;;;;;;8.95;95.09;101152.31;5113351;28;20230;-72
2023/04/07 10:41:35;;;;;;;6.33;5.83;;;;;;;8.92;95.06;101157.84;5113327;28;20193;-72
2023/04/07 10:44:03;;;;;;;5.63;5.43;;;;;;;8.87;95.39;101151.91;5113345;28;20254;-72
2023/04/07 10:46:48;;;;;;;6.13;5.83;;;;;;;8.91;95.44;101158.81;5116376;28;20532;-73
2023/04/07 10:49:15;;;;;;;7.60;6.90;;;;;;;8.92;95.50;101157.84;5117032;28;20534;-73
2023/04/07 10:52:13;;;;;;;5.50;5.17;;;;;;;8.86;95.13;101159.09;5116560;28;20300;-73
2023/04/07 10:54:40;;;;;;;6.40;6.00;;;;;;;8.85;95.21;101159.16;5116494;28;20292;-72
2023/04/07 10:57:13;;;;;;;5.63;5.23;;;;;;;8.91;95.07;101165.00;5116866;28;20726;-73
2023/04/07 11:00:10;;;;;;;5.73;5.63;;;;;;;8.85;96.00;101172.50;5117117;28;20180;-73
2023/04/07 11:02:38;;;;;;;7.20;6.80;;;;;;;8.95;95.95;101168.34;5116776;28;20678;-73
2023/04/07 11:05:05;;;;;;;5.50;5.30;;;;;;;8.91;96.01;101173.03;5116403;28;20216;-73
2023/04/07 11:07:48;;;;;;;6.00;5.50;;;;;;;8.89;95.78;101172.25;5116349;28;20190;-73
2023/04/07 11:10:17;;;;;;;6.73;6.30;;;;;;;8.89;95.54;101180.25;5116720;28;20174;-73
2023/04/07 11:12:57;;;;;;;5.17;5.07;;;;;;;8.91;95.56;101173.03;5116473;28;20198;-73
2023/04/07 11:15:23;;;;;;;4.50;4.40;;;;;;;8.97;95.81;101171.81;5116771;28;20205;-73
2023/04/07 11:18:09;;;;;;;4.63;4.43;;;;;;;8.93;95.63;101178.25;5116471;28;20596;-73
2023/04/07 11:20:45;;;;;;;4.13;3.97;;;;;;;8.98;95.95;101183.34;5116460;28;20179;-73
2023/04/07 11:23:13;;;;;;;5.80;5.60;;;;;;;8.97;95.71;101179.81;5116595;28;20185;-73
2023/04/07 11:25:44;;;;;;;6.70;6.50;;;;;;;8.93;95.35;101181.81;5116020;28;20186;-73
2023/04/07 11:28:12;;;;;;;5.73;5.43;;;;;;;8.91;95.35;101180.19;5116293;28;20178;-74
2023/04/07 11:30:45;;;;;;;5.57;5.37;;;;;;;8.86;95.25;101180.44;5115957;28;20196;-74
2023/04/07 11:33:16;;;;;;;6.23;5.70;;;;;;;8.89;95.38;101182.94;5116002;28;20238;-73